• Join FlightAware (Why Join?)
  • Login
  • US Flag 
08:52PM EDT


 

Airport Tracker/Info


-or-


 

Live Flight TrackerFlight Track Log ✈ CES2367 ✈ 02-Aug-2013 ✈ ZLXY / XIY - ZUJZ / JZH

Flight Track Log - Related Links

Times and Time Zones

All times are in EDT time to prevent confusion due to time zone crossing. See the CES2367 flight status page for this flight to view local times or setup timezone preferences in your user account.

Time Position Orientation Groundspeed Altitude Reporting Facility
EDT Latitude Longitude Course Direction KTS MPH feet Rate Location/Type
07:41PM 34.2401 108.0410 251° West  Level Estimated
07:42PM 34.2140 107.9524 250° West  Level Estimated
07:43PM 34.1877 107.8639 250° West  Level Estimated
07:44PM 34.1614 107.7754 250° West  Level Estimated
07:45PM 34.1351 107.6870 250° West  Level Estimated
07:46PM 34.1087 107.5986 250° West  Level Estimated
07:47PM 34.0822 107.5103 250° West  Level Estimated
07:48PM 34.0556 107.4221 250° West  Level Estimated
07:49PM 34.0290 107.3339 250° West  Level Estimated
07:50PM 34.0024 107.2457 250° West  Level Estimated
07:51PM 33.9756 107.1577 250° West  Level Estimated
07:52PM 33.9488 107.0696 250° West  Level Estimated
07:53PM 33.9220 106.9817 250° West  Level Estimated
07:54PM 33.8951 106.8937 250° West  Level Estimated
07:55PM 33.8681 106.8059 250° West  Level Estimated
07:56PM 33.8410 106.7181 250° West  Level Estimated
07:57PM 33.8139 106.6303 250° West  Level Estimated
07:58PM 33.7868 106.5426 250° West  Level Estimated
07:59PM 33.7595 106.4550 250° West  Level Estimated
08:00PM 33.7323 106.3674 249° West  Level Estimated
08:01PM 33.7049 106.2799 249° West  Level Estimated
08:02PM 33.6775 106.1924 249° West  Level Estimated
08:03PM 33.6500 106.1050 249° West  Level Estimated
08:04PM 33.6225 106.0176 249° West  Level Estimated
08:05PM 33.5949 105.9303 249° West  Level Estimated
08:06PM 33.5672 105.8431 249° West  Level Estimated
08:07PM 33.5395 105.7559 249° West  Level Estimated
08:08PM 33.5117 105.6687 249° West  Level Estimated
08:09PM 33.4838 105.5817 249° West  Level Estimated
08:10PM 33.4559 105.4947 249° West  Level Estimated
08:11PM 33.4280 105.4077 249° West  Level Estimated
08:12PM 33.3999 105.3208 249° West  Level Estimated
08:13PM 33.3718 105.2339 249° West  Level Estimated
08:14PM 33.3437 105.1471 249° West  Level Estimated
08:15PM 33.3155 105.0604 249° West  Level Estimated
08:16PM 33.2872 104.9737 249° West  Level Estimated
08:17PM 33.2589 104.8870 249° West  Level Estimated
08:18PM 33.2305 104.8005 249° West  Level Estimated
08:19PM 33.2020 104.7140 249° West  Level Estimated
08:20PM 33.1735 104.6275 249° West  Level Estimated
08:21PM 33.1450 104.5411 248° West  Level Estimated
08:21PM 32.4190 104.4650 248° West 400 460 23,600  Level FlightAware
08:21PM 32.4130 104.3800 265° West 400 460 23,600  Level FlightAware
08:22PM 32.4090 104.3110 266° West 399 459 23,600 -180 Level FlightAware
08:22PM 32.4270 104.2180 283° West 386 444 23,400 -540 Descending FlightAware
08:23PM 32.4500 104.1670 298° West 362 417 23,000 -360 Descending FlightAware
08:24PM 32.4840 104.1060 303° West 361 415 23,000  Level FlightAware
08:24PM 32.5120 104.0550 303° West 361 415 23,000  Level FlightAware
08:25PM 32.5400 104.0040 303° West 361 415 23,000  Level FlightAware
08:25PM 32.5680 103.9530 303° West 361 415 23,000  Level FlightAware
08:26PM 32.5960 103.9010 303° West 361 415 23,000  Level FlightAware
08:27PM 32.6240 103.8500 303° West 361 415 23,000  Level FlightAware
08:29PM 32.7484 103.7610 329° Northwest  Level Estimated
08:30PM 32.8149 103.7132 329° Northwest  Level Estimated
08:31PM 32.8570 103.6830 329° Northwest  Level Estimated
08:32PM 32.8570 103.6830 North  Level Estimated
08:33PM 32.8570 103.6830 North  Level Estimated
08:34PM 32.8570 103.6830 North  Level Estimated
08:35PM 32.8570 103.6830 North  Level Estimated
08:36PM 32.8570 103.6830 North  Level Estimated
08:37PM 32.8570 103.6830 North  Level Estimated
08:38PM 32.8570 103.6830 North  Level Estimated
08:39PM 32.8570 103.6830 North  Level Estimated
08:40PM 32.8570 103.6830 North  Level Estimated
08:41PM 32.8570 103.6830 North  Level Estimated
08:42PM 32.8570 103.6830 North  Level Estimated
08:43PM 32.8570 103.6830 North  Level Estimated
08:44PM 32.8570 103.6830 North  Level Estimated
08:45PM 32.8570 103.6830 North  Level Estimated
08:46PM 32.8570 103.6830 North  Level Estimated
08:47PM 32.8570 103.6830 North  Level Estimated